Weather at Coral Bay Airport

Public forecast

Using degrees Celsius for public forecast. Weather courtesy of forecast.io.

Closest aviation weather report (METAR) to Coral Bay Airport

Closest report is Learmonth Airport, 56.4 nm (104.5 km) NNE. Retrieved 2021/01/17 02:30 UTC (0 seconds ago):

YPLM 170230Z AUTO 02011KT 9999 // NCD 34/22 Q1009 RF000/0000

Closest aviation forecast (TAF) to Coral Bay Airport

Closest forecast is Learmonth Airport, 56.4 nm (104.5 km) NNE. Retrieved 2021-01-17 00:00 UTC (2 hours ago):

TAF YPLM 162329Z 1700/1800 03008KT CAVOK FM170100 03014KT CAVOK FM170900 23014KT CAVOK FM171500 18009KT CAVOK PROB30 TEMPO 1705/1710 VRB20G45KT 2000 TSRA SCT020 SCT090CB